Terminal Aerodrome Forecast
Issued by NWS Wilmington, OH

Current Version | Previous Version | Text Only | Print | Product List | Glossary Off
Versions: 1 2 3 4 5 6 7 8 9 10 11 12 13 14 15 16 17 18 19 20 21 22 23 24 25 26 27 28 29 30 31

000
FTUS41 KILN 022100 AAA
TAFDAY
TAF AMD
KDAY 022101Z 0221/0318 06007KT P6SM BKN025
     FM030600 03005KT 4SM BR BKN015
      TEMPO 0309/0313 3/4SM BR OVC006
     FM031600 07005KT P6SM BKN025=

USA.gov is the U.S. government's official web portal to all federal, state and local government web resources and services.